createdAt,value
2023-03-31T00:00:12.118Z,5.97
2023-03-31T00:02:41.583Z,6.22
2023-03-31T00:05:10.005Z,5.97
2023-03-31T00:07:38.314Z,5.45
2023-03-31T00:10:17.163Z,5.75
2023-03-31T00:12:45.188Z,5.53
2023-03-31T00:15:12.235Z,5.72
2023-03-31T00:17:39.158Z,5.53
2023-03-31T00:20:12.624Z,5.50
2023-03-31T00:22:42.528Z,5.65
2023-03-31T00:25:13.685Z,5.75
2023-03-31T00:27:44.803Z,5.07
2023-03-31T00:30:13.976Z,5.00
2023-03-31T00:32:40.969Z,4.80
2023-03-31T00:35:08.972Z,4.22
2023-03-31T00:37:35.968Z,5.18
2023-03-31T00:40:06.536Z,4.68
2023-03-31T00:42:33.343Z,4.68
2023-03-31T00:47:49.529Z,4.53
2023-03-31T00:50:19.006Z,4.15
2023-03-31T00:52:46.420Z,4.50
2023-03-31T00:55:18.955Z,4.55
2023-03-31T00:57:47.236Z,4.60
2023-03-31T01:00:18.775Z,4.12
2023-03-31T01:02:56.150Z,4.43
2023-03-31T01:05:46.082Z,4.50
2023-03-31T01:08:14.124Z,4.35
2023-03-31T01:10:45.421Z,5.00
2023-03-31T01:13:13.627Z,4.70
2023-03-31T01:15:40.816Z,4.15
2023-03-31T01:18:10.148Z,4.70
2023-03-31T01:21:08.061Z,5.12
2023-03-31T01:24:02.785Z,4.78
2023-03-31T01:26:42.178Z,3.83
2023-03-31T01:29:30.170Z,4.18
2023-03-31T01:32:31.017Z,3.60
2023-03-31T01:35:12.987Z,4.10
2023-03-31T01:37:48.892Z,3.75
2023-03-31T01:40:15.697Z,4.05
2023-03-31T01:45:36.854Z,4.50
2023-03-31T01:48:34.232Z,3.45
2023-03-31T01:51:08.943Z,3.97
2023-03-31T01:53:56.404Z,3.22
2023-03-31T01:56:31.677Z,3.60
2023-03-31T01:59:10.642Z,3.70
2023-03-31T02:01:56.577Z,3.90
2023-03-31T02:04:36.840Z,3.80
2023-03-31T02:07:09.031Z,4.20
2023-03-31T02:09:39.323Z,3.58
2023-03-31T02:12:09.424Z,3.90
2023-03-31T02:14:39.361Z,3.80
2023-03-31T02:17:08.464Z,4.30
2023-03-31T02:19:39.856Z,3.67
2023-03-31T02:22:08.503Z,3.97
2023-03-31T02:24:37.197Z,4.22
2023-03-31T02:27:17.750Z,3.75
2023-03-31T02:29:44.775Z,3.83
2023-03-31T02:32:31.527Z,3.97
2023-03-31T02:34:59.170Z,4.25
2023-03-31T02:37:26.574Z,4.15
2023-03-31T02:39:55.991Z,4.10
2023-03-31T02:42:23.197Z,4.07
2023-03-31T02:44:50.196Z,3.62
2023-03-31T02:47:18.592Z,3.97
2023-03-31T02:49:49.840Z,3.80
2023-03-31T02:52:25.798Z,4.30
2023-03-31T02:55:14.262Z,3.70
2023-03-31T02:57:50.102Z,3.90
2023-03-31T03:00:49.288Z,3.35
2023-03-31T03:03:51.612Z,3.47
2023-03-31T03:06:37.783Z,3.45
2023-03-31T03:09:08.786Z,3.22
2023-03-31T03:12:00.853Z,3.60
2023-03-31T03:14:36.122Z,3.62
2023-03-31T03:17:13.793Z,3.60
2023-03-31T03:19:42.367Z,3.55
2023-03-31T03:22:09.787Z,3.10
2023-03-31T03:24:36.687Z,2.87
2023-03-31T03:27:03.646Z,3.40
2023-03-31T03:29:31.015Z,3.25
2023-03-31T03:31:58.124Z,3.42
2023-03-31T03:34:25.758Z,3.40
2023-03-31T03:36:52.742Z,3.40
2023-03-31T03:39:19.625Z,2.90
2023-03-31T03:41:47.009Z,2.92
2023-03-31T03:44:13.943Z,2.87
2023-03-31T03:46:40.873Z,2.67
2023-03-31T03:49:07.810Z,3.10
2023-03-31T03:51:34.829Z,2.83
2023-03-31T03:54:02.109Z,2.85
2023-03-31T03:56:29.320Z,3.20
2023-03-31T03:58:56.327Z,2.80
2023-03-31T04:01:23.672Z,4.55
2023-03-31T04:03:50.669Z,3.03
2023-03-31T04:06:17.575Z,2.87
2023-03-31T04:08:44.473Z,2.80
2023-03-31T04:11:18.994Z,3.10
2023-03-31T04:13:46.992Z,2.65
2023-03-31T04:16:14.450Z,2.80
2023-03-31T04:18:44.153Z,2.80
2023-03-31T04:21:15.409Z,2.85
2023-03-31T04:23:46.744Z,2.33
2023-03-31T04:26:15.076Z,2.60
2023-03-31T04:28:50.876Z,2.87
2023-03-31T04:31:25.803Z,2.80
2023-03-31T04:33:53.705Z,2.40
2023-03-31T04:36:21.152Z,2.70
2023-03-31T04:38:54.984Z,2.67
2023-03-31T04:41:23.234Z,2.65
2023-03-31T04:43:50.628Z,2.65
2023-03-31T04:46:17.685Z,2.70
2023-03-31T04:48:44.592Z,2.40
2023-03-31T04:51:11.830Z,2.17
2023-03-31T04:53:38.744Z,2.40
2023-03-31T04:56:06.527Z,2.40
2023-03-31T04:58:33.819Z,2.30
2023-03-31T05:01:00.814Z,2.65
2023-03-31T05:03:27.912Z,2.40
2023-03-31T05:05:55.266Z,2.15
2023-03-31T05:08:22.129Z,2.20
2023-03-31T05:10:49.075Z,2.03
2023-03-31T05:13:16.102Z,2.35
2023-03-31T05:15:45.259Z,2.03
2023-03-31T05:18:12.509Z,1.85
2023-03-31T05:20:39.394Z,1.92
2023-03-31T05:23:07.233Z,2.30
2023-03-31T05:25:34.448Z,2.53
2023-03-31T05:28:02.162Z,2.58
2023-03-31T05:30:30.167Z,2.47
2023-03-31T05:32:57.324Z,2.40
2023-03-31T05:35:24.734Z,2.40
2023-03-31T05:37:51.776Z,2.50
2023-03-31T05:40:18.787Z,2.67
2023-03-31T05:42:45.676Z,2.37
2023-03-31T05:45:12.824Z,2.50
2023-03-31T05:47:39.791Z,2.53
2023-03-31T05:50:09.269Z,2.58
2023-03-31T05:52:36.670Z,2.60
2023-03-31T05:55:04.620Z,3.30
2023-03-31T05:57:32.065Z,3.20
2023-03-31T05:59:59.113Z,3.20
2023-03-31T06:02:26.290Z,3.17
2023-03-31T06:04:53.289Z,3.67
2023-03-31T06:07:20.214Z,3.70
2023-03-31T06:09:47.188Z,3.30
2023-03-31T06:12:14.166Z,2.97
2023-03-31T06:14:41.106Z,2.55
2023-03-31T06:17:08.037Z,2.40
2023-03-31T06:19:35.075Z,2.40
2023-03-31T06:22:02.137Z,2.40
2023-03-31T06:24:29.036Z,2.50
2023-03-31T06:26:56.011Z,2.30
2023-03-31T06:29:22.909Z,2.60
2023-03-31T06:31:49.813Z,2.60
2023-03-31T06:34:17.844Z,2.45
2023-03-31T06:36:45.857Z,2.60
2023-03-31T06:39:12.789Z,2.30
2023-03-31T06:41:39.665Z,2.90
2023-03-31T06:44:06.574Z,2.22
2023-03-31T06:46:33.832Z,2.20
2023-03-31T06:49:00.794Z,2.03
2023-03-31T06:51:29.287Z,2.47
2023-03-31T06:53:57.037Z,2.22
2023-03-31T06:56:23.913Z,2.28
2023-03-31T06:58:50.805Z,2.22
2023-03-31T07:01:17.730Z,2.33
2023-03-31T07:03:44.753Z,2.50
2023-03-31T07:06:14.157Z,2.17
2023-03-31T07:08:41.119Z,2.00
2023-03-31T07:11:08.478Z,2.10
2023-03-31T07:13:35.470Z,2.33
2023-03-31T07:16:02.401Z,2.35
2023-03-31T07:18:35.041Z,2.37
2023-03-31T07:21:05.803Z,2.50
2023-03-31T07:23:35.851Z,2.47
2023-03-31T07:26:02.836Z,2.12
2023-03-31T07:28:30.577Z,2.47
2023-03-31T07:30:57.547Z,2.42
2023-03-31T07:33:24.482Z,2.37
2023-03-31T07:36:00.252Z,2.35
2023-03-31T07:38:35.105Z,2.65
2023-03-31T07:41:09.162Z,2.72
2023-03-31T07:43:37.029Z,2.83
2023-03-31T07:46:05.938Z,2.60
2023-03-31T07:48:33.974Z,3.42
2023-03-31T07:51:00.885Z,3.12
2023-03-31T07:53:27.759Z,2.40
2023-03-31T07:55:54.700Z,2.30
2023-03-31T07:58:21.547Z,2.00
2023-03-31T08:00:48.395Z,2.17
2023-03-31T08:03:15.982Z,2.10
2023-03-31T08:05:42.918Z,2.28
2023-03-31T08:08:09.854Z,2.37
2023-03-31T08:10:37.361Z,2.33
2023-03-31T08:13:04.248Z,1.80
2023-03-31T08:15:31.210Z,2.22
2023-03-31T08:17:58.142Z,2.28
2023-03-31T08:20:25.195Z,2.15
2023-03-31T08:22:52.293Z,2.70
2023-03-31T08:25:20.831Z,2.30
2023-03-31T08:27:51.248Z,2.00
2023-03-31T08:30:19.846Z,2.10
2023-03-31T08:32:47.343Z,1.90
2023-03-31T08:35:14.415Z,2.30
2023-03-31T08:37:41.279Z,1.92
2023-03-31T08:40:12.745Z,2.03
2023-03-31T08:42:44.249Z,1.90
2023-03-31T08:45:28.380Z,1.95
2023-03-31T08:47:59.989Z,2.28
2023-03-31T08:50:33.786Z,2.20
2023-03-31T08:53:12.150Z,2.40
2023-03-31T08:55:53.276Z,2.45
2023-03-31T08:58:29.352Z,2.60
2023-03-31T09:01:07.601Z,2.15
2023-03-31T09:04:00.759Z,2.40
2023-03-31T09:06:53.948Z,2.35
2023-03-31T09:09:36.189Z,2.30
2023-03-31T09:12:12.317Z,2.20
2023-03-31T09:14:44.512Z,2.33
2023-03-31T09:17:27.519Z,2.80
2023-03-31T09:20:02.038Z,2.85
2023-03-31T09:22:39.154Z,2.83
2023-03-31T09:25:11.275Z,2.80
2023-03-31T09:27:41.569Z,2.78
2023-03-31T09:30:20.687Z,2.60
2023-03-31T09:32:50.399Z,2.62
2023-03-31T09:35:23.079Z,2.65
2023-03-31T09:37:50.210Z,2.50
2023-03-31T09:40:20.090Z,2.47
2023-03-31T09:42:48.541Z,2.58
2023-03-31T09:45:18.021Z,2.72
2023-03-31T09:47:47.537Z,2.55
2023-03-31T09:50:16.501Z,2.35
2023-03-31T09:52:47.957Z,2.60
2023-03-31T09:55:38.863Z,2.33
2023-03-31T09:58:08.481Z,2.40
2023-03-31T10:00:35.790Z,2.40
2023-03-31T10:03:07.606Z,2.20
2023-03-31T10:05:41.342Z,2.75
2023-03-31T10:08:17.558Z,2.78
2023-03-31T10:11:09.882Z,2.43
2023-03-31T10:13:59.044Z,2.53
2023-03-31T10:16:32.809Z,2.50
2023-03-31T10:19:18.251Z,2.72
2023-03-31T10:21:47.461Z,2.70
2023-03-31T10:24:18.985Z,2.50
2023-03-31T10:26:49.511Z,2.37
2023-03-31T10:29:29.992Z,2.60
2023-03-31T10:32:09.377Z,2.90
2023-03-31T10:34:39.922Z,2.92
2023-03-31T10:37:07.416Z,2.35
2023-03-31T10:39:34.573Z,2.10
2023-03-31T10:42:01.464Z,2.20
2023-03-31T10:44:37.145Z,2.42
2023-03-31T10:47:07.071Z,2.70
2023-03-31T10:49:39.374Z,2.50
2023-03-31T10:52:17.698Z,2.37
2023-03-31T10:54:49.584Z,2.62
2023-03-31T10:57:18.016Z,2.17
2023-03-31T11:00:13.812Z,2.17
2023-03-31T11:02:43.617Z,2.20
2023-03-31T11:05:22.653Z,2.25
2023-03-31T11:08:13.708Z,2.00
2023-03-31T11:10:52.747Z,2.40
2023-03-31T11:13:46.446Z,2.20
2023-03-31T11:16:45.807Z,2.30
2023-03-31T11:19:42.986Z,2.00
2023-03-31T11:22:34.398Z,2.20
2023-03-31T11:25:33.507Z,2.20
2023-03-31T11:28:09.767Z,1.90
2023-03-31T11:30:41.430Z,2.40
2023-03-31T11:33:32.339Z,2.20
2023-03-31T11:36:14.561Z,2.20
2023-03-31T11:38:56.627Z,2.58
2023-03-31T11:41:32.329Z,2.00
2023-03-31T11:44:04.087Z,2.35
2023-03-31T11:46:51.081Z,2.10
2023-03-31T11:49:17.903Z,2.10
2023-03-31T11:51:52.130Z,2.10
2023-03-31T11:54:24.769Z,2.20
2023-03-31T11:56:52.261Z,2.40
2023-03-31T11:59:21.057Z,2.25
2023-03-31T12:01:56.975Z,2.25
2023-03-31T12:04:37.753Z,2.30
2023-03-31T12:07:22.831Z,2.45
2023-03-31T12:10:16.885Z,2.47
2023-03-31T12:12:47.108Z,2.03
2023-03-31T12:15:24.326Z,2.10
2023-03-31T12:20:34.717Z,2.05
2023-03-31T12:23:04.263Z,2.42
2023-03-31T12:25:48.760Z,2.53
2023-03-31T12:28:16.398Z,2.25
2023-03-31T12:30:44.465Z,2.30
2023-03-31T12:33:22.520Z,2.50
2023-03-31T12:35:59.746Z,2.37
2023-03-31T12:38:48.386Z,2.20
2023-03-31T12:41:35.558Z,2.40
2023-03-31T12:44:22.392Z,2.53
2023-03-31T12:47:24.762Z,2.77
2023-03-31T12:50:12.565Z,2.25
2023-03-31T12:55:17.208Z,2.30
2023-03-31T12:57:44.099Z,2.42
2023-03-31T13:00:26.631Z,2.78
2023-03-31T13:03:31.130Z,2.35
2023-03-31T13:05:58.029Z,2.40
2023-03-31T13:08:49.943Z,2.33
2023-03-31T13:11:18.100Z,2.30
2023-03-31T13:16:36.355Z,2.30
2023-03-31T13:19:03.533Z,2.67
2023-03-31T13:21:30.645Z,2.50
2023-03-31T13:24:01.822Z,2.20
2023-03-31T13:26:34.486Z,2.92
2023-03-31T13:29:17.502Z,2.60
2023-03-31T13:32:04.638Z,2.58
2023-03-31T13:34:44.689Z,2.30
2023-03-31T13:37:28.810Z,2.67
2023-03-31T13:40:46.680Z,2.20
2023-03-31T13:43:35.112Z,2.35
2023-03-31T13:46:23.662Z,2.20
2023-03-31T13:49:16.126Z,2.62
2023-03-31T13:51:51.958Z,3.03
2023-03-31T13:54:52.016Z,2.30
2023-03-31T13:57:56.591Z,2.40
2023-03-31T14:00:38.918Z,2.80
2023-03-31T14:03:18.134Z,2.80
2023-03-31T14:05:50.340Z,2.85
2023-03-31T14:08:39.132Z,2.92
2023-03-31T14:11:25.122Z,2.80
2023-03-31T14:14:05.426Z,2.60
2023-03-31T14:16:38.678Z,3.00
2023-03-31T14:19:35.260Z,3.12
2023-03-31T14:22:17.188Z,2.62
2023-03-31T14:24:59.215Z,2.55
2023-03-31T14:28:09.827Z,2.65
2023-03-31T14:31:06.921Z,2.42
2023-03-31T14:34:08.297Z,2.50
2023-03-31T14:36:58.104Z,2.15
2023-03-31T14:39:29.164Z,2.10
2023-03-31T14:42:00.001Z,2.17
2023-03-31T14:44:27.177Z,2.35
2023-03-31T14:46:57.836Z,2.85
2023-03-31T14:49:39.050Z,2.37
2023-03-31T14:52:23.580Z,2.53
2023-03-31T14:54:53.199Z,2.17
2023-03-31T14:57:22.438Z,2.40
2023-03-31T14:59:51.585Z,2.12
2023-03-31T15:02:24.303Z,2.05
2023-03-31T15:04:51.818Z,1.80
2023-03-31T15:07:18.809Z,1.90
2023-03-31T15:09:50.161Z,1.92
2023-03-31T15:12:19.711Z,1.90
2023-03-31T15:14:56.229Z,1.75
2023-03-31T15:17:29.076Z,1.77
2023-03-31T15:19:58.113Z,2.00
2023-03-31T15:22:29.928Z,1.85
2023-03-31T15:24:57.549Z,1.80
2023-03-31T15:27:37.140Z,1.83
2023-03-31T15:30:07.670Z,2.10
2023-03-31T15:32:39.444Z,1.98
2023-03-31T15:35:20.980Z,2.20
2023-03-31T15:37:51.163Z,2.00
2023-03-31T15:40:28.082Z,2.12
2023-03-31T15:43:25.526Z,2.25
2023-03-31T15:45:54.931Z,2.45
2023-03-31T15:48:26.238Z,2.80
2023-03-31T15:50:53.441Z,2.62
2023-03-31T15:53:28.007Z,2.67
2023-03-31T15:56:02.624Z,2.58
2023-03-31T15:58:55.518Z,2.45
2023-03-31T16:01:23.397Z,2.42
2023-03-31T16:03:53.322Z,2.42
2023-03-31T16:06:33.228Z,2.30
2023-03-31T16:09:09.196Z,2.55
2023-03-31T16:11:43.132Z,3.00
2023-03-31T16:14:26.244Z,2.30
2023-03-31T16:17:00.610Z,1.98
2023-03-31T16:19:29.425Z,2.40
2023-03-31T16:21:59.725Z,2.10
2023-03-31T16:24:32.207Z,2.37
2023-03-31T16:27:06.505Z,2.17
2023-03-31T16:29:37.590Z,2.35
2023-03-31T16:32:24.788Z,2.50
2023-03-31T16:35:03.310Z,2.53
2023-03-31T16:37:30.271Z,2.47
2023-03-31T16:39:57.874Z,2.70
2023-03-31T16:42:24.974Z,2.35
2023-03-31T16:45:09.697Z,2.42
2023-03-31T16:47:38.902Z,2.22
2023-03-31T16:50:07.774Z,2.25
2023-03-31T16:52:36.010Z,2.45
2023-03-31T16:55:02.974Z,2.33
2023-03-31T16:57:29.915Z,2.40
2023-03-31T16:59:58.853Z,2.15
2023-03-31T17:02:26.409Z,2.65
2023-03-31T17:04:56.577Z,2.55
2023-03-31T17:07:27.132Z,2.03
2023-03-31T17:09:53.992Z,2.67
2023-03-31T17:12:21.055Z,2.25
2023-03-31T17:14:47.913Z,2.92
2023-03-31T17:17:17.350Z,2.33
2023-03-31T17:19:44.760Z,2.65
2023-03-31T17:22:11.622Z,2.78
2023-03-31T17:24:38.585Z,2.78
2023-03-31T17:27:05.648Z,3.08
2023-03-31T17:29:32.532Z,2.33
2023-03-31T17:31:59.529Z,2.58
2023-03-31T17:34:26.430Z,2.60
2023-03-31T17:36:55.666Z,2.80
2023-03-31T17:39:22.744Z,2.33
2023-03-31T17:41:49.664Z,2.90
2023-03-31T17:44:16.728Z,2.47
2023-03-31T17:46:45.566Z,1.80
2023-03-31T17:49:12.718Z,2.30
2023-03-31T17:51:39.593Z,2.35
2023-03-31T17:54:07.047Z,2.10
2023-03-31T17:56:34.796Z,2.25
2023-03-31T17:59:01.958Z,2.45
2023-03-31T18:01:28.883Z,2.53
2023-03-31T18:03:56.517Z,3.10
2023-03-31T18:06:25.023Z,3.05
2023-03-31T18:08:51.882Z,2.30
2023-03-31T18:11:18.967Z,2.20
2023-03-31T18:13:46.327Z,2.70
2023-03-31T18:16:13.822Z,2.80
2023-03-31T18:18:41.688Z,1.62
2023-03-31T18:21:11.091Z,1.23
2023-03-31T18:23:38.255Z,1.30
2023-03-31T18:26:10.001Z,1.50
2023-03-31T18:28:37.207Z,1.23
2023-03-31T18:31:05.163Z,1.50
2023-03-31T18:33:32.157Z,1.40
2023-03-31T18:35:59.419Z,1.23
2023-03-31T18:38:27.353Z,1.33
2023-03-31T18:40:54.627Z,1.20
2023-03-31T18:43:24.930Z,1.35
2023-03-31T18:45:53.813Z,1.73
2023-03-31T18:48:22.216Z,1.65
2023-03-31T18:50:51.501Z,1.52
2023-03-31T18:53:19.463Z,1.40
2023-03-31T18:55:57.005Z,1.50
2023-03-31T18:58:25.032Z,1.50
2023-03-31T19:00:51.987Z,1.20
2023-03-31T19:03:22.427Z,1.40
2023-03-31T19:05:49.919Z,1.30
2023-03-31T19:08:16.802Z,1.50
2023-03-31T19:10:43.807Z,1.37
2023-03-31T19:13:16.101Z,1.37
2023-03-31T19:15:43.112Z,1.40
2023-03-31T19:18:15.095Z,1.45
2023-03-31T19:20:41.956Z,1.48
2023-03-31T19:23:09.605Z,1.40
2023-03-31T19:25:36.496Z,1.20
2023-03-31T19:28:04.252Z,1.30
2023-03-31T19:30:31.124Z,1.20
2023-03-31T19:32:58.027Z,1.30
2023-03-31T19:35:27.404Z,1.20
2023-03-31T19:37:54.900Z,1.10
2023-03-31T19:40:21.832Z,1.20
2023-03-31T19:42:48.771Z,1.17
2023-03-31T19:45:15.670Z,1.35
2023-03-31T19:47:42.651Z,1.10
2023-03-31T19:50:11.701Z,1.58
2023-03-31T19:52:38.572Z,1.45
2023-03-31T19:55:05.884Z,1.37
2023-03-31T19:57:32.841Z,1.60
2023-03-31T19:59:59.743Z,1.98
2023-03-31T20:02:26.867Z,1.60
2023-03-31T20:04:54.160Z,1.65
2023-03-31T20:07:21.026Z,1.33
2023-03-31T20:09:47.906Z,1.20
2023-03-31T20:12:14.823Z,1.17
2023-03-31T20:14:41.767Z,1.08
2023-03-31T20:17:10.199Z,1.25
2023-03-31T20:19:37.114Z,1.00
2023-03-31T20:22:03.959Z,1.52
2023-03-31T20:24:30.917Z,1.70
2023-03-31T20:26:58.818Z,1.80
2023-03-31T20:29:26.295Z,1.83
2023-03-31T20:31:53.405Z,1.70
2023-03-31T20:34:22.744Z,1.60
2023-03-31T20:36:51.774Z,1.70
2023-03-31T20:39:19.993Z,1.50
2023-03-31T20:41:47.471Z,1.65
2023-03-31T20:44:15.769Z,1.55
2023-03-31T20:46:43.830Z,1.40
2023-03-31T20:49:11.545Z,1.50
2023-03-31T20:51:38.842Z,1.58
2023-03-31T20:54:07.143Z,1.60
2023-03-31T20:56:35.229Z,1.70
2023-03-31T20:59:02.198Z,1.77
2023-03-31T21:01:32.953Z,1.77
2023-03-31T21:04:01.557Z,1.90
2023-03-31T21:06:30.477Z,1.92
2023-03-31T21:09:00.099Z,1.70
2023-03-31T21:11:27.590Z,1.85
2023-03-31T21:13:54.728Z,1.98
2023-03-31T21:16:21.879Z,1.98
2023-03-31T21:18:48.905Z,1.60
2023-03-31T21:21:18.973Z,2.10
2023-03-31T21:23:46.809Z,1.50
2023-03-31T21:26:15.819Z,1.90
2023-03-31T21:28:43.259Z,1.70
2023-03-31T21:31:11.554Z,1.90
2023-03-31T21:33:39.763Z,1.87
2023-03-31T21:36:09.812Z,1.50
2023-03-31T21:38:37.269Z,1.25
2023-03-31T21:41:11.460Z,1.35
2023-03-31T21:43:38.353Z,1.30
2023-03-31T21:46:06.599Z,1.20
2023-03-31T21:48:34.075Z,1.00
2023-03-31T21:51:01.656Z,0.90
2023-03-31T21:53:30.300Z,1.08
2023-03-31T21:55:57.868Z,0.90
2023-03-31T21:58:28.782Z,1.52
2023-03-31T22:00:57.900Z,0.70
2023-03-31T22:03:34.389Z,0.80
2023-03-31T22:06:07.366Z,0.90
2023-03-31T22:08:36.650Z,1.10
2023-03-31T22:11:04.550Z,1.00
2023-03-31T22:13:31.487Z,0.88
2023-03-31T22:16:00.574Z,1.20
2023-03-31T22:18:28.590Z,1.20
2023-03-31T22:20:55.688Z,1.40
2023-03-31T22:23:23.234Z,1.12
2023-03-31T22:25:50.077Z,1.30
2023-03-31T22:28:17.353Z,1.10
2023-03-31T22:30:44.429Z,1.20
2023-03-31T22:33:12.082Z,1.20
2023-03-31T22:35:39.081Z,1.20
2023-03-31T22:38:06.648Z,1.20
2023-03-31T22:40:35.115Z,1.40
2023-03-31T22:43:02.134Z,0.90
2023-03-31T22:45:29.012Z,1.10
2023-03-31T22:47:56.679Z,1.23
2023-03-31T22:50:24.295Z,1.10
2023-03-31T22:52:51.220Z,1.25
2023-03-31T22:55:18.153Z,1.08
2023-03-31T22:57:45.275Z,1.10
2023-03-31T23:00:13.016Z,0.93
2023-03-31T23:02:40.262Z,1.00
2023-03-31T23:05:07.928Z,1.08
2023-03-31T23:07:34.781Z,1.15
2023-03-31T23:10:01.780Z,1.10
2023-03-31T23:12:28.746Z,1.35
2023-03-31T23:14:55.608Z,1.12
2023-03-31T23:17:22.638Z,1.20
2023-03-31T23:19:49.595Z,1.20
2023-03-31T23:22:16.526Z,1.10
2023-03-31T23:24:43.420Z,1.30
2023-03-31T23:27:10.848Z,1.25
2023-03-31T23:29:37.747Z,1.30
2023-03-31T23:32:05.007Z,1.20
2023-03-31T23:34:32.199Z,1.00
2023-03-31T23:36:59.098Z,0.90
2023-03-31T23:39:26.037Z,1.20
2023-03-31T23:41:53.636Z,1.40
2023-03-31T23:44:20.594Z,1.52
2023-03-31T23:46:47.570Z,1.40
2023-03-31T23:49:14.522Z,1.33
2023-03-31T23:51:41.393Z,1.55
2023-03-31T23:54:08.263Z,1.75
2023-03-31T23:56:35.202Z,1.37
2023-03-31T23:59:02.057Z,1.83
